Terminal Aerodrome Forecast
Issued by NWS

Home | Current Version | Previous Version | Graphics & Text | Print | Product List | Glossary On
Versions: 1 2 3 4 5 6 7 8 9 10 11 12 13 14 15
000
FTUS43 KMPX 221124
TAFRWF
TAF
KRWF 221124Z 2212/2312 21005KT P6SM SCT250
     FM221500 19010KT P6SM BKN200
     FM221800 18015G22KT P6SM OVC050
     FM230100 21006KT P6SM BKN040 OVC080
     FM230600 30007KT P6SM SCT150=

USA.gov is the U.S. government's official web portal to all federal, state and local government web resources and services.